Terminal Aerodrome Forecast
Issued by NWS

Home | Current Version | Previous Version | Graphics & Text | Print | Product List | Glossary On
Versions: 1 2 3 4 5 6 7 8 9 10 11 12 13 14 15 16 17 18 19 20 21 22
000
FTUS43 KMPX 240500 RRA
TAFAXN
TAF
KAXN 240542Z 2406/2506 32016G26KT 6SM -FZDZ BR OVC007
     FM241000 33022G32KT 6SM -SHSN OVC012
     FM242300 32014G24KT P6SM FEW015=

USA.gov is the U.S. government's official web portal to all federal, state and local government web resources and services.